sensor_id;sensor_type;location;lat;lon;timestamp;temperature;humidity
20560;DHT22;10438;51.454;6.718;2022-10-26T00:02:16;11.90;99.90
20560;DHT22;10438;51.454;6.718;2022-10-26T00:04:42;11.90;99.90
20560;DHT22;10438;51.454;6.718;2022-10-26T00:07:07;11.90;99.90
20560;DHT22;10438;51.454;6.718;2022-10-26T00:09:33;11.90;99.90
20560;DHT22;10438;51.454;6.718;2022-10-26T00:11:58;11.90;99.90
20560;DHT22;10438;51.454;6.718;2022-10-26T00:14:25;11.90;99.90
20560;DHT22;10438;51.454;6.718;2022-10-26T00:16:50;11.90;99.90
20560;DHT22;10438;51.454;6.718;2022-10-26T00:19:16;11.90;99.90
20560;DHT22;10438;51.454;6.718;2022-10-26T00:21:41;11.90;99.90
20560;DHT22;10438;51.454;6.718;2022-10-26T00:24:07;12.00;99.90
20560;DHT22;10438;51.454;6.718;2022-10-26T00:26:32;12.00;99.90
20560;DHT22;10438;51.454;6.718;2022-10-26T00:28:58;12.00;99.90
20560;DHT22;10438;51.454;6.718;2022-10-26T00:31:24;12.00;99.90
20560;DHT22;10438;51.454;6.718;2022-10-26T00:33:53;12.00;99.90
20560;DHT22;10438;51.454;6.718;2022-10-26T00:36:19;12.00;99.90
20560;DHT22;10438;51.454;6.718;2022-10-26T00:38:49;12.10;99.90
20560;DHT22;10438;51.454;6.718;2022-10-26T00:41:18;12.00;99.90
20560;DHT22;10438;51.454;6.718;2022-10-26T00:43:44;12.00;99.90
20560;DHT22;10438;51.454;6.718;2022-10-26T00:46:17;12.10;99.90
20560;DHT22;10438;51.454;6.718;2022-10-26T00:48:48;12.10;99.90
20560;DHT22;10438;51.454;6.718;2022-10-26T00:51:19;12.10;99.90
20560;DHT22;10438;51.454;6.718;2022-10-26T00:53:47;12.10;99.90
20560;DHT22;10438;51.454;6.718;2022-10-26T00:56:13;12.10;99.90
20560;DHT22;10438;51.454;6.718;2022-10-26T00:58:39;12.10;99.90
20560;DHT22;10438;51.454;6.718;2022-10-26T01:01:04;12.10;99.90
20560;DHT22;10438;51.454;6.718;2022-10-26T01:03:31;12.20;99.90
20560;DHT22;10438;51.454;6.718;2022-10-26T01:05:57;12.20;99.90
20560;DHT22;10438;51.454;6.718;2022-10-26T01:08:24;12.20;99.90
20560;DHT22;10438;51.454;6.718;2022-10-26T01:10:52;12.20;99.90
20560;DHT22;10438;51.454;6.718;2022-10-26T01:13:18;12.20;99.90
20560;DHT22;10438;51.454;6.718;2022-10-26T01:15:55;12.20;99.90
20560;DHT22;10438;51.454;6.718;2022-10-26T01:21:56;12.30;99.90
20560;DHT22;10438;51.454;6.718;2022-10-26T01:27:35;12.30;99.90
20560;DHT22;10438;51.454;6.718;2022-10-26T01:30:31;12.40;99.90
20560;DHT22;10438;51.454;6.718;2022-10-26T01:41:06;12.40;99.90
20560;DHT22;10438;51.454;6.718;2022-10-26T01:43:35;12.40;99.90
20560;DHT22;10438;51.454;6.718;2022-10-26T01:46:03;12.40;99.90
20560;DHT22;10438;51.454;6.718;2022-10-26T01:48:32;12.40;99.90
20560;DHT22;10438;51.454;6.718;2022-10-26T01:50:59;12.40;99.90
20560;DHT22;10438;51.454;6.718;2022-10-26T01:53:26;12.50;99.90
20560;DHT22;10438;51.454;6.718;2022-10-26T01:55:54;12.50;99.90
20560;DHT22;10438;51.454;6.718;2022-10-26T02:03:32;12.50;99.90
20560;DHT22;10438;51.454;6.718;2022-10-26T02:06:30;12.50;99.90
20560;DHT22;10438;51.454;6.718;2022-10-26T02:09:20;12.60;99.90
20560;DHT22;10438;51.454;6.718;2022-10-26T02:11:51;12.60;99.90
20560;DHT22;10438;51.454;6.718;2022-10-26T02:16:58;12.60;99.90
20560;DHT22;10438;51.454;6.718;2022-10-26T02:19:36;12.60;99.90
20560;DHT22;10438;51.454;6.718;2022-10-26T02:24:47;12.70;99.90
20560;DHT22;10438;51.454;6.718;2022-10-26T02:27:42;12.70;99.90
20560;DHT22;10438;51.454;6.718;2022-10-26T02:30:10;12.80;99.90
20560;DHT22;10438;51.454;6.718;2022-10-26T02:32:41;12.90;99.90
20560;DHT22;10438;51.454;6.718;2022-10-26T02:35:08;12.90;99.90
20560;DHT22;10438;51.454;6.718;2022-10-26T02:37:36;13.00;99.90
20560;DHT22;10438;51.454;6.718;2022-10-26T02:40:06;13.10;99.90
20560;DHT22;10438;51.454;6.718;2022-10-26T02:42:33;13.10;99.90
20560;DHT22;10438;51.454;6.718;2022-10-26T02:45:04;13.10;99.90
20560;DHT22;10438;51.454;6.718;2022-10-26T02:47:32;13.10;99.90
20560;DHT22;10438;51.454;6.718;2022-10-26T02:49:58;13.10;99.90
20560;DHT22;10438;51.454;6.718;2022-10-26T02:55:26;13.20;99.90
20560;DHT22;10438;51.454;6.718;2022-10-26T02:57:59;13.20;99.90
20560;DHT22;10438;51.454;6.718;2022-10-26T03:00:26;13.20;99.90
20560;DHT22;10438;51.454;6.718;2022-10-26T03:02:55;13.20;99.90
20560;DHT22;10438;51.454;6.718;2022-10-26T03:05:26;13.20;99.90
20560;DHT22;10438;51.454;6.718;2022-10-26T03:07:52;13.20;99.90
20560;DHT22;10438;51.454;6.718;2022-10-26T03:10:18;13.20;99.90
20560;DHT22;10438;51.454;6.718;2022-10-26T03:12:44;13.30;99.90
20560;DHT22;10438;51.454;6.718;2022-10-26T03:15:09;13.20;99.90
20560;DHT22;10438;51.454;6.718;2022-10-26T03:17:35;13.30;99.90
20560;DHT22;10438;51.454;6.718;2022-10-26T03:20:01;13.20;99.90
20560;DHT22;10438;51.454;6.718;2022-10-26T03:22:26;13.20;99.90
20560;DHT22;10438;51.454;6.718;2022-10-26T03:24:52;13.20;99.90
20560;DHT22;10438;51.454;6.718;2022-10-26T03:27:18;13.20;99.90
20560;DHT22;10438;51.454;6.718;2022-10-26T03:29:43;13.20;99.90
20560;DHT22;10438;51.454;6.718;2022-10-26T03:32:09;13.20;99.90
20560;DHT22;10438;51.454;6.718;2022-10-26T03:34:34;13.30;99.90
20560;DHT22;10438;51.454;6.718;2022-10-26T03:37:00;13.30;99.90
20560;DHT22;10438;51.454;6.718;2022-10-26T03:39:25;13.30;99.90
20560;DHT22;10438;51.454;6.718;2022-10-26T03:41:51;13.30;99.90
20560;DHT22;10438;51.454;6.718;2022-10-26T03:44:16;13.40;99.90
20560;DHT22;10438;51.454;6.718;2022-10-26T03:46:42;13.40;99.90
20560;DHT22;10438;51.454;6.718;2022-10-26T03:49:07;13.40;99.90
20560;DHT22;10438;51.454;6.718;2022-10-26T03:51:33;13.40;99.90
20560;DHT22;10438;51.454;6.718;2022-10-26T03:53:58;13.50;99.90
20560;DHT22;10438;51.454;6.718;2022-10-26T03:56:24;13.50;99.90
20560;DHT22;10438;51.454;6.718;2022-10-26T03:58:50;13.60;99.90
20560;DHT22;10438;51.454;6.718;2022-10-26T04:01:15;13.60;99.90
20560;DHT22;10438;51.454;6.718;2022-10-26T04:03:41;13.60;99.90
20560;DHT22;10438;51.454;6.718;2022-10-26T04:06:06;13.60;99.90
20560;DHT22;10438;51.454;6.718;2022-10-26T04:08:32;13.60;99.90
20560;DHT22;10438;51.454;6.718;2022-10-26T04:10:57;13.70;99.90
20560;DHT22;10438;51.454;6.718;2022-10-26T04:13:23;13.70;99.90
20560;DHT22;10438;51.454;6.718;2022-10-26T04:15:48;13.80;99.90
20560;DHT22;10438;51.454;6.718;2022-10-26T04:18:14;13.80;99.90
20560;DHT22;10438;51.454;6.718;2022-10-26T04:20:40;13.80;99.90
20560;DHT22;10438;51.454;6.718;2022-10-26T04:23:10;13.90;99.90
20560;DHT22;10438;51.454;6.718;2022-10-26T04:25:36;14.00;99.90
20560;DHT22;10438;51.454;6.718;2022-10-26T04:28:03;14.10;99.90
20560;DHT22;10438;51.454;6.718;2022-10-26T04:30:29;14.20;99.90
20560;DHT22;10438;51.454;6.718;2022-10-26T04:32:55;14.30;99.90
20560;DHT22;10438;51.454;6.718;2022-10-26T04:35:21;14.30;99.90
20560;DHT22;10438;51.454;6.718;2022-10-26T04:37:46;14.40;99.90
20560;DHT22;10438;51.454;6.718;2022-10-26T04:40:12;14.50;99.90
20560;DHT22;10438;51.454;6.718;2022-10-26T04:42:45;14.50;99.90
20560;DHT22;10438;51.454;6.718;2022-10-26T04:45:13;14.60;99.90
20560;DHT22;10438;51.454;6.718;2022-10-26T04:47:39;14.60;99.90
20560;DHT22;10438;51.454;6.718;2022-10-26T04:50:06;14.70;99.90
20560;DHT22;10438;51.454;6.718;2022-10-26T04:52:33;14.70;99.90
20560;DHT22;10438;51.454;6.718;2022-10-26T04:54:59;14.70;99.90
20560;DHT22;10438;51.454;6.718;2022-10-26T04:57:25;14.70;99.90
20560;DHT22;10438;51.454;6.718;2022-10-26T04:59:50;14.70;99.90
20560;DHT22;10438;51.454;6.718;2022-10-26T05:02:16;14.80;99.90
20560;DHT22;10438;51.454;6.718;2022-10-26T05:04:41;14.80;99.90
20560;DHT22;10438;51.454;6.718;2022-10-26T05:07:07;14.70;99.90
20560;DHT22;10438;51.454;6.718;2022-10-26T05:09:32;14.80;99.90
20560;DHT22;10438;51.454;6.718;2022-10-26T05:11:58;14.80;99.90
20560;DHT22;10438;51.454;6.718;2022-10-26T05:14:23;14.90;99.90
20560;DHT22;10438;51.454;6.718;2022-10-26T05:16:52;14.90;99.90
20560;DHT22;10438;51.454;6.718;2022-10-26T05:19:20;14.90;99.90
20560;DHT22;10438;51.454;6.718;2022-10-26T05:21:45;15.00;99.90
20560;DHT22;10438;51.454;6.718;2022-10-26T05:24:11;15.00;99.90
20560;DHT22;10438;51.454;6.718;2022-10-26T05:26:36;14.90;99.90
20560;DHT22;10438;51.454;6.718;2022-10-26T05:29:02;14.90;99.90
20560;DHT22;10438;51.454;6.718;2022-10-26T05:31:27;14.90;99.90
20560;DHT22;10438;51.454;6.718;2022-10-26T05:33:53;14.90;99.90
20560;DHT22;10438;51.454;6.718;2022-10-26T05:36:19;14.90;99.90
20560;DHT22;10438;51.454;6.718;2022-10-26T05:38:44;14.90;99.90
20560;DHT22;10438;51.454;6.718;2022-10-26T05:41:10;14.90;99.90
20560;DHT22;10438;51.454;6.718;2022-10-26T05:43:36;14.90;99.90
20560;DHT22;10438;51.454;6.718;2022-10-26T05:46:01;14.90;99.90
20560;DHT22;10438;51.454;6.718;2022-10-26T05:48:27;14.90;99.90
20560;DHT22;10438;51.454;6.718;2022-10-26T05:50:52;14.90;99.90
20560;DHT22;10438;51.454;6.718;2022-10-26T05:53:18;14.90;99.90
20560;DHT22;10438;51.454;6.718;2022-10-26T05:55:44;14.90;99.90
20560;DHT22;10438;51.454;6.718;2022-10-26T05:58:12;14.90;99.90
20560;DHT22;10438;51.454;6.718;2022-10-26T06:03:37;15.00;99.90
20560;DHT22;10438;51.454;6.718;2022-10-26T06:06:06;15.00;99.90
20560;DHT22;10438;51.454;6.718;2022-10-26T06:08:34;14.90;99.90
20560;DHT22;10438;51.454;6.718;2022-10-26T06:10:59;15.00;99.90
20560;DHT22;10438;51.454;6.718;2022-10-26T06:13:27;15.00;99.90
20560;DHT22;10438;51.454;6.718;2022-10-26T06:16:11;14.90;99.90
20560;DHT22;10438;51.454;6.718;2022-10-26T06:29:54;14.90;99.90
20560;DHT22;10438;51.454;6.718;2022-10-26T06:32:22;14.80;99.90
20560;DHT22;10438;51.454;6.718;2022-10-26T06:34:52;14.90;99.90
20560;DHT22;10438;51.454;6.718;2022-10-26T06:37:20;14.80;99.90
20560;DHT22;10438;51.454;6.718;2022-10-26T06:39:48;14.90;99.90
20560;DHT22;10438;51.454;6.718;2022-10-26T06:42:14;14.80;99.90
20560;DHT22;10438;51.454;6.718;2022-10-26T06:44:40;14.80;99.90
20560;DHT22;10438;51.454;6.718;2022-10-26T06:47:13;14.80;99.90
20560;DHT22;10438;51.454;6.718;2022-10-26T06:52:39;14.80;99.90
20560;DHT22;10438;51.454;6.718;2022-10-26T06:55:12;14.90;99.90
20560;DHT22;10438;51.454;6.718;2022-10-26T06:57:40;14.90;99.90
20560;DHT22;10438;51.454;6.718;2022-10-26T07:00:19;15.00;99.90
20560;DHT22;10438;51.454;6.718;2022-10-26T07:02:45;15.00;99.90
20560;DHT22;10438;51.454;6.718;2022-10-26T07:05:11;15.10;99.90
20560;DHT22;10438;51.454;6.718;2022-10-26T07:07:44;15.10;99.90
20560;DHT22;10438;51.454;6.718;2022-10-26T07:10:11;15.20;99.90
20560;DHT22;10438;51.454;6.718;2022-10-26T07:12:37;15.20;99.90
20560;DHT22;10438;51.454;6.718;2022-10-26T07:15:04;15.30;99.90
20560;DHT22;10438;51.454;6.718;2022-10-26T07:17:30;15.30;99.90
20560;DHT22;10438;51.454;6.718;2022-10-26T07:19:56;15.40;99.90
20560;DHT22;10438;51.454;6.718;2022-10-26T07:22:22;15.40;99.90
20560;DHT22;10438;51.454;6.718;2022-10-26T07:24:47;15.40;99.90
20560;DHT22;10438;51.454;6.718;2022-10-26T07:27:16;15.40;99.90
20560;DHT22;10438;51.454;6.718;2022-10-26T07:29:44;15.40;99.90
20560;DHT22;10438;51.454;6.718;2022-10-26T07:32:09;15.50;99.90
20560;DHT22;10438;51.454;6.718;2022-10-26T07:34:35;15.50;99.90
20560;DHT22;10438;51.454;6.718;2022-10-26T07:37:00;15.40;99.90
20560;DHT22;10438;51.454;6.718;2022-10-26T07:39:26;15.40;99.90
20560;DHT22;10438;51.454;6.718;2022-10-26T07:41:52;15.50;99.90
20560;DHT22;10438;51.454;6.718;2022-10-26T07:44:18;15.40;99.90
20560;DHT22;10438;51.454;6.718;2022-10-26T07:46:43;15.40;99.90
20560;DHT22;10438;51.454;6.718;2022-10-26T07:49:09;15.40;99.90
20560;DHT22;10438;51.454;6.718;2022-10-26T07:51:35;15.40;99.90
20560;DHT22;10438;51.454;6.718;2022-10-26T07:54:01;15.50;99.90
20560;DHT22;10438;51.454;6.718;2022-10-26T07:56:27;15.50;99.90
20560;DHT22;10438;51.454;6.718;2022-10-26T07:58:53;15.50;99.90
20560;DHT22;10438;51.454;6.718;2022-10-26T08:01:19;15.50;99.90
20560;DHT22;10438;51.454;6.718;2022-10-26T08:03:44;15.50;99.90
20560;DHT22;10438;51.454;6.718;2022-10-26T08:06:10;15.40;99.90
20560;DHT22;10438;51.454;6.718;2022-10-26T08:08:36;15.40;99.90
20560;DHT22;10438;51.454;6.718;2022-10-26T08:11:02;15.40;99.90
20560;DHT22;10438;51.454;6.718;2022-10-26T08:13:28;15.40;99.90
20560;DHT22;10438;51.454;6.718;2022-10-26T08:15:58;15.40;99.90
20560;DHT22;10438;51.454;6.718;2022-10-26T08:18:24;15.50;99.90
20560;DHT22;10438;51.454;6.718;2022-10-26T08:20:50;15.50;99.90
20560;DHT22;10438;51.454;6.718;2022-10-26T08:23:15;15.60;99.90
20560;DHT22;10438;51.454;6.718;2022-10-26T08:25:41;15.70;99.90
20560;DHT22;10438;51.454;6.718;2022-10-26T08:28:07;15.80;99.90
20560;DHT22;10438;51.454;6.718;2022-10-26T08:30:32;15.90;99.90
20560;DHT22;10438;51.454;6.718;2022-10-26T08:33:03;16.00;99.90
20560;DHT22;10438;51.454;6.718;2022-10-26T08:35:29;16.20;99.90
20560;DHT22;10438;51.454;6.718;2022-10-26T08:37:55;16.40;99.90
20560;DHT22;10438;51.454;6.718;2022-10-26T08:40:26;16.50;99.90
20560;DHT22;10438;51.454;6.718;2022-10-26T08:42:59;16.70;99.90
20560;DHT22;10438;51.454;6.718;2022-10-26T08:45:32;17.00;99.90
20560;DHT22;10438;51.454;6.718;2022-10-26T08:48:06;17.20;99.90
20560;DHT22;10438;51.454;6.718;2022-10-26T08:50:40;17.40;99.90
20560;DHT22;10438;51.454;6.718;2022-10-26T08:53:14;17.50;99.90
20560;DHT22;10438;51.454;6.718;2022-10-26T08:55:49;17.60;99.90
20560;DHT22;10438;51.454;6.718;2022-10-26T08:58:19;17.70;99.90
20560;DHT22;10438;51.454;6.718;2022-10-26T09:00:47;17.80;99.90
20560;DHT22;10438;51.454;6.718;2022-10-26T09:03:14;17.80;99.90
20560;DHT22;10438;51.454;6.718;2022-10-26T09:09:19;18.10;99.90
20560;DHT22;10438;51.454;6.718;2022-10-26T09:12:18;18.10;99.90
20560;DHT22;10438;51.454;6.718;2022-10-26T09:22:47;18.20;99.90
20560;DHT22;10438;51.454;6.718;2022-10-26T09:25:22;18.50;99.90
20560;DHT22;10438;51.454;6.718;2022-10-26T09:28:00;18.70;99.90
20560;DHT22;10438;51.454;6.718;2022-10-26T09:30:26;19.00;99.90
20560;DHT22;10438;51.454;6.718;2022-10-26T09:33:00;19.10;99.90
20560;DHT22;10438;51.454;6.718;2022-10-26T09:35:54;19.00;99.90
20560;DHT22;10438;51.454;6.718;2022-10-26T09:41:27;18.80;99.90
20560;DHT22;10438;51.454;6.718;2022-10-26T09:44:12;18.90;99.90
20560;DHT22;10438;51.454;6.718;2022-10-26T09:47:02;19.00;99.90
20560;DHT22;10438;51.454;6.718;2022-10-26T09:49:44;19.30;99.90
20560;DHT22;10438;51.454;6.718;2022-10-26T09:52:13;19.40;99.90
20560;DHT22;10438;51.454;6.718;2022-10-26T09:54:39;19.60;99.90
20560;DHT22;10438;51.454;6.718;2022-10-26T09:57:06;19.60;99.90
20560;DHT22;10438;51.454;6.718;2022-10-26T09:59:37;19.60;99.90
20560;DHT22;10438;51.454;6.718;2022-10-26T10:02:35;19.70;99.90
20560;DHT22;10438;51.454;6.718;2022-10-26T10:05:07;19.80;99.90
20560;DHT22;10438;51.454;6.718;2022-10-26T10:07:43;19.90;99.90
20560;DHT22;10438;51.454;6.718;2022-10-26T10:10:16;20.00;99.90
20560;DHT22;10438;51.454;6.718;2022-10-26T10:12:42;20.10;99.90
20560;DHT22;10438;51.454;6.718;2022-10-26T10:15:40;20.30;99.90
20560;DHT22;10438;51.454;6.718;2022-10-26T10:18:18;20.30;99.90
20560;DHT22;10438;51.454;6.718;2022-10-26T10:20:51;20.30;99.90
20560;DHT22;10438;51.454;6.718;2022-10-26T10:25:59;20.30;99.90
20560;DHT22;10438;51.454;6.718;2022-10-26T10:28:25;20.30;99.90
20560;DHT22;10438;51.454;6.718;2022-10-26T10:30:53;20.40;99.90
20560;DHT22;10438;51.454;6.718;2022-10-26T10:33:19;20.30;99.90
20560;DHT22;10438;51.454;6.718;2022-10-26T10:35:51;20.30;99.90
20560;DHT22;10438;51.454;6.718;2022-10-26T10:38:19;20.30;99.90
20560;DHT22;10438;51.454;6.718;2022-10-26T10:40:54;20.40;99.90
20560;DHT22;10438;51.454;6.718;2022-10-26T10:43:21;20.50;99.90
20560;DHT22;10438;51.454;6.718;2022-10-26T10:45:48;20.40;99.90
20560;DHT22;10438;51.454;6.718;2022-10-26T10:48:20;20.60;99.90
20560;DHT22;10438;51.454;6.718;2022-10-26T10:50:59;20.60;99.90
20560;DHT22;10438;51.454;6.718;2022-10-26T10:53:26;20.70;99.90
20560;DHT22;10438;51.454;6.718;2022-10-26T10:58:38;20.70;99.90
20560;DHT22;10438;51.454;6.718;2022-10-26T11:01:12;20.70;99.90
20560;DHT22;10438;51.454;6.718;2022-10-26T11:03:59;20.80;99.90
20560;DHT22;10438;51.454;6.718;2022-10-26T11:06:34;21.00;99.90
20560;DHT22;10438;51.454;6.718;2022-10-26T11:09:13;20.90;99.90
20560;DHT22;10438;51.454;6.718;2022-10-26T11:14:45;21.20;99.90
20560;DHT22;10438;51.454;6.718;2022-10-26T11:17:23;21.30;99.90
20560;DHT22;10438;51.454;6.718;2022-10-26T11:19:54;21.30;99.90
20560;DHT22;10438;51.454;6.718;2022-10-26T11:23:28;21.30;99.90
20560;DHT22;10438;51.454;6.718;2022-10-26T11:25:29;21.30;99.90
20560;DHT22;10438;51.454;6.718;2022-10-26T11:28:22;21.50;99.90
20560;DHT22;10438;51.454;6.718;2022-10-26T11:30:58;21.70;99.90
20560;DHT22;10438;51.454;6.718;2022-10-26T11:33:28;21.90;99.90
20560;DHT22;10438;51.454;6.718;2022-10-26T11:36:07;21.80;99.90
20560;DHT22;10438;51.454;6.718;2022-10-26T11:41:15;21.80;99.90
20560;DHT22;10438;51.454;6.718;2022-10-26T11:43:47;22.00;99.90
20560;DHT22;10438;51.454;6.718;2022-10-26T11:48:55;22.00;99.90
20560;DHT22;10438;51.454;6.718;2022-10-26T11:56:51;21.90;99.90
20560;DHT22;10438;51.454;6.718;2022-10-26T11:59:20;21.80;99.90
20560;DHT22;10438;51.454;6.718;2022-10-26T12:01:50;21.60;99.90
20560;DHT22;10438;51.454;6.718;2022-10-26T12:04:18;21.50;99.90
20560;DHT22;10438;51.454;6.718;2022-10-26T12:06:46;21.50;99.90
20560;DHT22;10438;51.454;6.718;2022-10-26T12:09:24;21.50;99.90
20560;DHT22;10438;51.454;6.718;2022-10-26T12:14:37;21.70;99.90
20560;DHT22;10438;51.454;6.718;2022-10-26T12:17:29;21.70;99.90
20560;DHT22;10438;51.454;6.718;2022-10-26T12:22:55;21.90;99.90
20560;DHT22;10438;51.454;6.718;2022-10-26T12:25:21;21.80;99.90
20560;DHT22;10438;51.454;6.718;2022-10-26T12:37:57;20.80;99.90
20560;DHT22;10438;51.454;6.718;2022-10-26T12:54:32;21.20;99.90
20560;DHT22;10438;51.454;6.718;2022-10-26T12:57:23;21.30;99.90
20560;DHT22;10438;51.454;6.718;2022-10-26T13:00:04;21.50;99.90
20560;DHT22;10438;51.454;6.718;2022-10-26T13:05:27;21.50;99.90
20560;DHT22;10438;51.454;6.718;2022-10-26T13:08:05;21.60;99.90
20560;DHT22;10438;51.454;6.718;2022-10-26T13:10:33;21.80;99.90
20560;DHT22;10438;51.454;6.718;2022-10-26T13:13:00;21.90;99.90
20560;DHT22;10438;51.454;6.718;2022-10-26T13:15:28;21.80;99.90
20560;DHT22;10438;51.454;6.718;2022-10-26T13:18:15;21.70;99.90
20560;DHT22;10438;51.454;6.718;2022-10-26T13:23:33;21.60;99.90
20560;DHT22;10438;51.454;6.718;2022-10-26T13:28:33;21.80;99.90
20560;DHT22;10438;51.454;6.718;2022-10-26T13:34:05;22.00;99.90
20560;DHT22;10438;51.454;6.718;2022-10-26T13:39:35;22.00;99.90
20560;DHT22;10438;51.454;6.718;2022-10-26T13:42:02;22.20;99.90
20560;DHT22;10438;51.454;6.718;2022-10-26T13:45:02;22.30;99.90
20560;DHT22;10438;51.454;6.718;2022-10-26T13:50:18;22.10;99.90
20560;DHT22;10438;51.454;6.718;2022-10-26T13:52:47;21.80;99.90
20560;DHT22;10438;51.454;6.718;2022-10-26T13:55:38;21.80;99.90
20560;DHT22;10438;51.454;6.718;2022-10-26T14:01:18;21.70;99.90
20560;DHT22;10438;51.454;6.718;2022-10-26T14:03:48;21.90;99.90
20560;DHT22;10438;51.454;6.718;2022-10-26T14:06:46;22.00;99.90
20560;DHT22;10438;51.454;6.718;2022-10-26T14:09:15;22.00;99.90
20560;DHT22;10438;51.454;6.718;2022-10-26T14:11:51;22.00;99.90
20560;DHT22;10438;51.454;6.718;2022-10-26T14:14:20;21.70;99.90
20560;DHT22;10438;51.454;6.718;2022-10-26T14:16:49;21.50;99.90
20560;DHT22;10438;51.454;6.718;2022-10-26T14:19:37;21.40;99.90
20560;DHT22;10438;51.454;6.718;2022-10-26T14:22:03;21.30;99.90
20560;DHT22;10438;51.454;6.718;2022-10-26T14:24:35;21.20;99.90
20560;DHT22;10438;51.454;6.718;2022-10-26T14:27:15;21.00;99.90
20560;DHT22;10438;51.454;6.718;2022-10-26T14:29:41;21.00;99.90
20560;DHT22;10438;51.454;6.718;2022-10-26T14:34:44;20.90;99.90
20560;DHT22;10438;51.454;6.718;2022-10-26T14:37:17;20.90;99.90
20560;DHT22;10438;51.454;6.718;2022-10-26T14:39:44;20.90;99.90
20560;DHT22;10438;51.454;6.718;2022-10-26T14:42:30;20.80;99.90
20560;DHT22;10438;51.454;6.718;2022-10-26T14:44:57;20.70;99.90
20560;DHT22;10438;51.454;6.718;2022-10-26T14:47:26;20.70;99.90
20560;DHT22;10438;51.454;6.718;2022-10-26T14:49:52;20.70;99.90
20560;DHT22;10438;51.454;6.718;2022-10-26T14:52:23;20.60;99.90
20560;DHT22;10438;51.454;6.718;2022-10-26T14:55:00;20.70;99.90
20560;DHT22;10438;51.454;6.718;2022-10-26T14:57:34;20.60;99.90
20560;DHT22;10438;51.454;6.718;2022-10-26T15:00:12;20.60;99.90
20560;DHT22;10438;51.454;6.718;2022-10-26T15:02:40;20.50;99.90
20560;DHT22;10438;51.454;6.718;2022-10-26T15:07:43;20.40;99.90
20560;DHT22;10438;51.454;6.718;2022-10-26T15:13:30;20.30;99.90
20560;DHT22;10438;51.454;6.718;2022-10-26T15:16:20;20.30;99.90
20560;DHT22;10438;51.454;6.718;2022-10-26T15:18:49;20.20;99.90
20560;DHT22;10438;51.454;6.718;2022-10-26T15:21:34;20.20;99.90
20560;DHT22;10438;51.454;6.718;2022-10-26T15:24:01;20.20;99.90
20560;DHT22;10438;51.454;6.718;2022-10-26T15:26:27;20.10;99.90
20560;DHT22;10438;51.454;6.718;2022-10-26T15:28:54;20.10;99.90
20560;DHT22;10438;51.454;6.718;2022-10-26T15:36:18;19.90;99.90
20560;DHT22;10438;51.454;6.718;2022-10-26T15:38:45;19.90;99.90
20560;DHT22;10438;51.454;6.718;2022-10-26T15:41:25;19.80;99.90
20560;DHT22;10438;51.454;6.718;2022-10-26T15:43:53;19.80;99.90
20560;DHT22;10438;51.454;6.718;2022-10-26T15:46:31;19.70;99.90
20560;DHT22;10438;51.454;6.718;2022-10-26T15:48:59;19.60;99.90
20560;DHT22;10438;51.454;6.718;2022-10-26T15:51:25;19.60;99.90
20560;DHT22;10438;51.454;6.718;2022-10-26T15:53:52;19.50;99.90
20560;DHT22;10438;51.454;6.718;2022-10-26T15:56:20;19.40;99.90
20560;DHT22;10438;51.454;6.718;2022-10-26T15:58:47;19.40;99.90
20560;DHT22;10438;51.454;6.718;2022-10-26T16:01:18;19.30;99.90
20560;DHT22;10438;51.454;6.718;2022-10-26T16:03:44;19.20;99.90
20560;DHT22;10438;51.454;6.718;2022-10-26T16:06:25;19.30;99.90
20560;DHT22;10438;51.454;6.718;2022-10-26T16:08:52;19.20;99.90
20560;DHT22;10438;51.454;6.718;2022-10-26T16:11:20;19.20;99.90
20560;DHT22;10438;51.454;6.718;2022-10-26T16:13:46;19.20;99.90
20560;DHT22;10438;51.454;6.718;2022-10-26T16:16:14;19.10;99.90
20560;DHT22;10438;51.454;6.718;2022-10-26T16:18:40;19.10;99.90
20560;DHT22;10438;51.454;6.718;2022-10-26T16:21:13;19.00;99.90
20560;DHT22;10438;51.454;6.718;2022-10-26T16:23:39;19.00;99.90
20560;DHT22;10438;51.454;6.718;2022-10-26T16:26:05;18.90;99.90
20560;DHT22;10438;51.454;6.718;2022-10-26T16:28:31;18.90;99.90
20560;DHT22;10438;51.454;6.718;2022-10-26T16:31:05;18.80;99.90
20560;DHT22;10438;51.454;6.718;2022-10-26T16:33:30;18.80;99.90
20560;DHT22;10438;51.454;6.718;2022-10-26T16:36:00;18.70;99.90
20560;DHT22;10438;51.454;6.718;2022-10-26T16:38:26;18.70;99.90
20560;DHT22;10438;51.454;6.718;2022-10-26T16:41:05;18.70;99.90
20560;DHT22;10438;51.454;6.718;2022-10-26T16:43:34;18.70;99.90
20560;DHT22;10438;51.454;6.718;2022-10-26T16:46:07;18.70;99.90
20560;DHT22;10438;51.454;6.718;2022-10-26T16:48:37;18.60;99.90
20560;DHT22;10438;51.454;6.718;2022-10-26T16:51:14;18.60;99.90
20560;DHT22;10438;51.454;6.718;2022-10-26T16:53:40;18.50;99.90
20560;DHT22;10438;51.454;6.718;2022-10-26T16:56:12;18.60;99.90
20560;DHT22;10438;51.454;6.718;2022-10-26T16:58:38;18.50;99.90
20560;DHT22;10438;51.454;6.718;2022-10-26T17:01:05;18.40;99.90
20560;DHT22;10438;51.454;6.718;2022-10-26T17:03:30;18.30;99.90
20560;DHT22;10438;51.454;6.718;2022-10-26T17:05:58;18.30;99.90
20560;DHT22;10438;51.454;6.718;2022-10-26T17:08:25;18.30;99.90
20560;DHT22;10438;51.454;6.718;2022-10-26T17:10:51;18.30;99.90
20560;DHT22;10438;51.454;6.718;2022-10-26T17:13:16;18.20;99.90
20560;DHT22;10438;51.454;6.718;2022-10-26T17:15:42;18.10;99.90
20560;DHT22;10438;51.454;6.718;2022-10-26T17:18:08;18.10;99.90
20560;DHT22;10438;51.454;6.718;2022-10-26T17:20:35;18.10;99.90
20560;DHT22;10438;51.454;6.718;2022-10-26T17:23:01;18.00;99.90
20560;DHT22;10438;51.454;6.718;2022-10-26T17:25:26;18.00;99.90
20560;DHT22;10438;51.454;6.718;2022-10-26T17:27:52;17.90;99.90
20560;DHT22;10438;51.454;6.718;2022-10-26T17:30:17;17.90;99.90
20560;DHT22;10438;51.454;6.718;2022-10-26T17:32:43;17.80;99.90
20560;DHT22;10438;51.454;6.718;2022-10-26T17:35:08;17.70;99.90
20560;DHT22;10438;51.454;6.718;2022-10-26T17:37:34;17.70;99.90
20560;DHT22;10438;51.454;6.718;2022-10-26T17:40:02;17.70;99.90
20560;DHT22;10438;51.454;6.718;2022-10-26T17:42:27;17.70;99.90
20560;DHT22;10438;51.454;6.718;2022-10-26T17:44:53;17.60;99.90
20560;DHT22;10438;51.454;6.718;2022-10-26T17:47:18;17.60;99.90
20560;DHT22;10438;51.454;6.718;2022-10-26T17:49:44;17.60;99.90
20560;DHT22;10438;51.454;6.718;2022-10-26T17:52:09;17.50;99.90
20560;DHT22;10438;51.454;6.718;2022-10-26T17:54:36;17.50;99.90
20560;DHT22;10438;51.454;6.718;2022-10-26T17:57:01;17.60;99.90
20560;DHT22;10438;51.454;6.718;2022-10-26T17:59:27;17.60;99.90
20560;DHT22;10438;51.454;6.718;2022-10-26T18:01:52;17.60;99.90
20560;DHT22;10438;51.454;6.718;2022-10-26T18:04:19;17.60;99.90
20560;DHT22;10438;51.454;6.718;2022-10-26T18:06:44;17.60;99.90
20560;DHT22;10438;51.454;6.718;2022-10-26T18:09:10;17.60;99.90